sensor_id;sensor_type;location;lat;lon;timestamp;P1;durP1;ratioP1;P2;durP2;ratioP2
63217;SDS011;49314;48.278;16.378;2023-08-06T00:02:02;2.83;;;2.72;;
63217;SDS011;49314;48.278;16.378;2023-08-06T00:04:28;4.15;;;3.95;;
63217;SDS011;49314;48.278;16.378;2023-08-06T00:06:53;3.90;;;3.80;;
63217;SDS011;49314;48.278;16.378;2023-08-06T00:09:18;3.13;;;3.03;;
63217;SDS011;49314;48.278;16.378;2023-08-06T00:11:43;2.53;;;2.42;;
63217;SDS011;49314;48.278;16.378;2023-08-06T00:14:09;2.83;;;2.72;;
63217;SDS011;49314;48.278;16.378;2023-08-06T00:16:34;3.35;;;3.15;;
63217;SDS011;49314;48.278;16.378;2023-08-06T00:18:59;3.53;;;3.42;;
63217;SDS011;49314;48.278;16.378;2023-08-06T00:21:25;3.10;;;3.00;;
63217;SDS011;49314;48.278;16.378;2023-08-06T00:23:50;3.95;;;3.85;;
63217;SDS011;49314;48.278;16.378;2023-08-06T00:26:17;4.20;;;4.00;;
63217;SDS011;49314;48.278;16.378;2023-08-06T00:28:42;3.90;;;3.70;;
63217;SDS011;49314;48.278;16.378;2023-08-06T00:31:07;2.53;;;2.47;;
63217;SDS011;49314;48.278;16.378;2023-08-06T00:33:33;2.38;;;2.35;;
63217;SDS011;49314;48.278;16.378;2023-08-06T00:35:58;3.93;;;3.83;;
63217;SDS011;49314;48.278;16.378;2023-08-06T00:38:23;1.90;;;1.85;;
63217;SDS011;49314;48.278;16.378;2023-08-06T00:40:48;4.17;;;4.03;;
63217;SDS011;49314;48.278;16.378;2023-08-06T00:43:14;3.43;;;3.33;;
63217;SDS011;49314;48.278;16.378;2023-08-06T00:45:39;2.90;;;2.70;;
63217;SDS011;49314;48.278;16.378;2023-08-06T00:48:04;3.60;;;3.50;;
63217;SDS011;49314;48.278;16.378;2023-08-06T00:50:30;2.35;;;2.25;;
63217;SDS011;49314;48.278;16.378;2023-08-06T00:52:55;4.25;;;4.15;;
63217;SDS011;49314;48.278;16.378;2023-08-06T00:55:21;3.17;;;3.08;;
63217;SDS011;49314;48.278;16.378;2023-08-06T00:57:46;4.22;;;4.07;;
63217;SDS011;49314;48.278;16.378;2023-08-06T01:00:11;3.60;;;3.50;;
63217;SDS011;49314;48.278;16.378;2023-08-06T01:02:37;3.83;;;3.63;;
63217;SDS011;49314;48.278;16.378;2023-08-06T01:05:02;3.53;;;3.42;;
63217;SDS011;49314;48.278;16.378;2023-08-06T01:15:52;3.72;;;3.63;;
63217;SDS011;49314;48.278;16.378;2023-08-06T01:18:10;4.00;;;3.90;;
63217;SDS011;49314;48.278;16.378;2023-08-06T01:20:35;3.60;;;3.50;;
63217;SDS011;49314;48.278;16.378;2023-08-06T01:23:00;4.20;;;4.10;;
63217;SDS011;49314;48.278;16.378;2023-08-06T01:25:27;4.33;;;4.23;;
63217;SDS011;49314;48.278;16.378;2023-08-06T01:27:55;3.45;;;3.35;;
63217;SDS011;49314;48.278;16.378;2023-08-06T01:30:25;3.65;;;3.55;;
63217;SDS011;49314;48.278;16.378;2023-08-06T01:32:53;4.40;;;4.20;;
63217;SDS011;49314;48.278;16.378;2023-08-06T01:35:20;4.32;;;4.22;;
63217;SDS011;49314;48.278;16.378;2023-08-06T01:37:46;3.65;;;3.55;;
63217;SDS011;49314;48.278;16.378;2023-08-06T01:40:13;3.80;;;3.70;;
63217;SDS011;49314;48.278;16.378;2023-08-06T01:42:38;3.05;;;2.95;;
63217;SDS011;49314;48.278;16.378;2023-08-06T01:45:04;4.32;;;4.13;;
63217;SDS011;49314;48.278;16.378;2023-08-06T01:47:29;2.35;;;2.35;;
63217;SDS011;49314;48.278;16.378;2023-08-06T01:49:54;3.13;;;3.03;;
63217;SDS011;49314;48.278;16.378;2023-08-06T01:52:20;3.78;;;3.67;;
63217;SDS011;49314;48.278;16.378;2023-08-06T01:54:45;3.53;;;3.43;;
63217;SDS011;49314;48.278;16.378;2023-08-06T01:57:10;4.38;;;4.25;;
63217;SDS011;49314;48.278;16.378;2023-08-06T01:59:36;3.20;;;3.10;;
63217;SDS011;49314;48.278;16.378;2023-08-06T02:02:01;3.03;;;2.92;;
63217;SDS011;49314;48.278;16.378;2023-08-06T02:04:26;4.20;;;4.10;;
63217;SDS011;49314;48.278;16.378;2023-08-06T02:06:51;4.00;;;3.90;;
63217;SDS011;49314;48.278;16.378;2023-08-06T02:09:17;4.40;;;4.30;;
63217;SDS011;49314;48.278;16.378;2023-08-06T02:11:42;2.33;;;2.23;;
63217;SDS011;49314;48.278;16.378;2023-08-06T02:14:07;4.30;;;4.17;;
63217;SDS011;49314;48.278;16.378;2023-08-06T02:16:32;3.80;;;3.70;;
63217;SDS011;49314;48.278;16.378;2023-08-06T02:18:57;4.10;;;3.90;;
63217;SDS011;49314;48.278;16.378;2023-08-06T02:21:23;4.63;;;4.43;;
63217;SDS011;49314;48.278;16.378;2023-08-06T02:23:48;3.70;;;3.60;;
63217;SDS011;49314;48.278;16.378;2023-08-06T02:26:13;4.33;;;4.10;;
63217;SDS011;49314;48.278;16.378;2023-08-06T02:28:38;4.80;;;4.70;;
63217;SDS011;49314;48.278;16.378;2023-08-06T02:31:04;4.47;;;4.37;;
63217;SDS011;49314;48.278;16.378;2023-08-06T02:33:29;4.10;;;4.00;;
63217;SDS011;49314;48.278;16.378;2023-08-06T02:36:00;4.88;;;4.68;;
63217;SDS011;49314;48.278;16.378;2023-08-06T02:38:26;3.65;;;3.55;;
63217;SDS011;49314;48.278;16.378;2023-08-06T02:40:51;4.15;;;3.97;;
63217;SDS011;49314;48.278;16.378;2023-08-06T02:43:17;6.53;;;6.33;;
63217;SDS011;49314;48.278;16.378;2023-08-06T02:45:42;4.68;;;4.53;;
63217;SDS011;49314;48.278;16.378;2023-08-06T02:48:07;4.93;;;4.77;;
63217;SDS011;49314;48.278;16.378;2023-08-06T02:50:39;5.05;;;4.82;;
63217;SDS011;49314;48.278;16.378;2023-08-06T02:53:05;3.85;;;3.33;;
63217;SDS011;49314;48.278;16.378;2023-08-06T02:55:31;3.42;;;3.30;;
63217;SDS011;49314;48.278;16.378;2023-08-06T02:57:56;5.13;;;4.93;;
63217;SDS011;49314;48.278;16.378;2023-08-06T03:00:21;4.67;;;4.47;;
63217;SDS011;49314;48.278;16.378;2023-08-06T03:02:46;4.00;;;3.90;;
63217;SDS011;49314;48.278;16.378;2023-08-06T03:05:12;4.33;;;4.13;;
63217;SDS011;49314;48.278;16.378;2023-08-06T03:07:37;4.13;;;4.03;;
63217;SDS011;49314;48.278;16.378;2023-08-06T03:10:02;5.15;;;4.97;;
63217;SDS011;49314;48.278;16.378;2023-08-06T03:12:28;3.92;;;3.83;;
63217;SDS011;49314;48.278;16.378;2023-08-06T03:14:53;3.28;;;3.17;;
63217;SDS011;49314;48.278;16.378;2023-08-06T03:17:18;3.78;;;3.65;;
63217;SDS011;49314;48.278;16.378;2023-08-06T03:19:44;3.80;;;3.70;;
63217;SDS011;49314;48.278;16.378;2023-08-06T03:22:09;6.03;;;5.75;;
63217;SDS011;49314;48.278;16.378;2023-08-06T03:24:34;4.37;;;4.20;;
63217;SDS011;49314;48.278;16.378;2023-08-06T03:26:59;5.45;;;5.15;;
63217;SDS011;49314;48.278;16.378;2023-08-06T03:29:25;4.90;;;4.70;;
63217;SDS011;49314;48.278;16.378;2023-08-06T03:31:51;4.32;;;4.03;;
63217;SDS011;49314;48.278;16.378;2023-08-06T03:34:16;4.15;;;3.95;;
63217;SDS011;49314;48.278;16.378;2023-08-06T03:36:42;4.77;;;4.57;;
63217;SDS011;49314;48.278;16.378;2023-08-06T03:39:07;4.13;;;3.87;;
63217;SDS011;49314;48.278;16.378;2023-08-06T03:41:32;3.60;;;3.50;;
63217;SDS011;49314;48.278;16.378;2023-08-06T03:43:57;4.75;;;4.55;;
63217;SDS011;49314;48.278;16.378;2023-08-06T03:46:22;5.20;;;5.00;;
63217;SDS011;49314;48.278;16.378;2023-08-06T03:48:48;4.43;;;4.23;;
63217;SDS011;49314;48.278;16.378;2023-08-06T03:51:13;5.30;;;5.03;;
63217;SDS011;49314;48.278;16.378;2023-08-06T03:53:38;3.97;;;3.83;;
63217;SDS011;49314;48.278;16.378;2023-08-06T03:56:03;6.10;;;5.90;;
63217;SDS011;49314;48.278;16.378;2023-08-06T03:58:29;5.35;;;5.15;;
63217;SDS011;49314;48.278;16.378;2023-08-06T04:00:58;5.35;;;5.13;;
63217;SDS011;49314;48.278;16.378;2023-08-06T04:03:23;3.00;;;2.72;;
63217;SDS011;49314;48.278;16.378;2023-08-06T04:05:49;5.17;;;4.87;;
63217;SDS011;49314;48.278;16.378;2023-08-06T04:08:14;4.67;;;4.47;;
63217;SDS011;49314;48.278;16.378;2023-08-06T04:10:39;5.37;;;5.17;;
63217;SDS011;49314;48.278;16.378;2023-08-06T04:13:04;6.00;;;4.07;;
63217;SDS011;49314;48.278;16.378;2023-08-06T04:15:29;4.07;;;3.87;;
63217;SDS011;49314;48.278;16.378;2023-08-06T04:17:55;5.72;;;5.32;;
63217;SDS011;49314;48.278;16.378;2023-08-06T04:20:21;5.82;;;5.55;;
63217;SDS011;49314;48.278;16.378;2023-08-06T04:22:47;5.32;;;4.88;;
63217;SDS011;49314;48.278;16.378;2023-08-06T04:25:12;4.90;;;4.60;;
63217;SDS011;49314;48.278;16.378;2023-08-06T04:27:37;5.13;;;4.93;;
63217;SDS011;49314;48.278;16.378;2023-08-06T04:30:06;5.30;;;5.10;;
63217;SDS011;49314;48.278;16.378;2023-08-06T04:32:31;5.50;;;5.10;;
63217;SDS011;49314;48.278;16.378;2023-08-06T04:34:57;4.75;;;4.55;;
63217;SDS011;49314;48.278;16.378;2023-08-06T04:37:22;4.00;;;3.80;;
63217;SDS011;49314;48.278;16.378;2023-08-06T04:39:47;4.07;;;3.73;;
63217;SDS011;49314;48.278;16.378;2023-08-06T04:42:12;4.18;;;3.92;;
63217;SDS011;49314;48.278;16.378;2023-08-06T04:44:38;4.50;;;4.30;;
63217;SDS011;49314;48.278;16.378;2023-08-06T04:47:03;4.47;;;4.30;;
63217;SDS011;49314;48.278;16.378;2023-08-06T04:49:28;4.00;;;3.85;;
63217;SDS011;49314;48.278;16.378;2023-08-06T04:51:53;5.65;;;5.35;;
63217;SDS011;49314;48.278;16.378;2023-08-06T04:54:19;4.33;;;4.10;;
63217;SDS011;49314;48.278;16.378;2023-08-06T04:56:44;4.07;;;3.87;;
63217;SDS011;49314;48.278;16.378;2023-08-06T04:59:09;4.35;;;4.15;;
63217;SDS011;49314;48.278;16.378;2023-08-06T05:01:34;5.00;;;4.80;;
63217;SDS011;49314;48.278;16.378;2023-08-06T05:04:00;5.38;;;5.07;;
63217;SDS011;49314;48.278;16.378;2023-08-06T05:06:25;3.83;;;3.63;;
63217;SDS011;49314;48.278;16.378;2023-08-06T05:08:50;4.70;;;4.40;;
63217;SDS011;49314;48.278;16.378;2023-08-06T05:11:15;3.70;;;3.50;;
63217;SDS011;49314;48.278;16.378;2023-08-06T05:13:41;3.43;;;3.33;;
63217;SDS011;49314;48.278;16.378;2023-08-06T05:16:06;3.57;;;3.30;;
63217;SDS011;49314;48.278;16.378;2023-08-06T05:18:31;4.63;;;3.60;;
63217;SDS011;49314;48.278;16.378;2023-08-06T05:20:56;5.18;;;4.78;;
63217;SDS011;49314;48.278;16.378;2023-08-06T05:23:22;3.22;;;3.13;;
63217;SDS011;49314;48.278;16.378;2023-08-06T05:25:47;3.45;;;3.25;;
63217;SDS011;49314;48.278;16.378;2023-08-06T05:28:12;3.90;;;3.70;;
63217;SDS011;49314;48.278;16.378;2023-08-06T05:30:41;4.72;;;4.50;;
63217;SDS011;49314;48.278;16.378;2023-08-06T05:33:06;3.60;;;3.40;;
63217;SDS011;49314;48.278;16.378;2023-08-06T05:35:31;4.70;;;4.40;;
63217;SDS011;49314;48.278;16.378;2023-08-06T05:37:57;5.13;;;4.93;;
63217;SDS011;49314;48.278;16.378;2023-08-06T05:40:22;2.97;;;2.70;;
63217;SDS011;49314;48.278;16.378;2023-08-06T05:42:47;3.65;;;3.55;;
63217;SDS011;49314;48.278;16.378;2023-08-06T05:45:12;3.50;;;3.40;;
63217;SDS011;49314;48.278;16.378;2023-08-06T05:47:38;4.03;;;3.92;;
63217;SDS011;49314;48.278;16.378;2023-08-06T05:50:03;3.67;;;3.47;;
63217;SDS011;49314;48.278;16.378;2023-08-06T05:52:28;3.90;;;3.70;;
63217;SDS011;49314;48.278;16.378;2023-08-06T05:54:54;2.30;;;2.20;;
63217;SDS011;49314;48.278;16.378;2023-08-06T05:57:20;3.28;;;3.17;;
63217;SDS011;49314;48.278;16.378;2023-08-06T05:59:45;4.03;;;3.90;;
63217;SDS011;49314;48.278;16.378;2023-08-06T06:02:10;3.93;;;3.73;;
63217;SDS011;49314;48.278;16.378;2023-08-06T06:04:36;4.28;;;4.10;;
63217;SDS011;49314;48.278;16.378;2023-08-06T06:07:02;4.00;;;3.67;;
63217;SDS011;49314;48.278;16.378;2023-08-06T06:09:27;3.25;;;3.15;;
63217;SDS011;49314;48.278;16.378;2023-08-06T06:11:52;2.78;;;2.67;;
63217;SDS011;49314;48.278;16.378;2023-08-06T06:14:18;3.53;;;3.33;;
63217;SDS011;49314;48.278;16.378;2023-08-06T06:16:43;3.78;;;3.67;;
63217;SDS011;49314;48.278;16.378;2023-08-06T06:19:08;3.47;;;3.35;;
63217;SDS011;49314;48.278;16.378;2023-08-06T06:21:34;4.33;;;4.13;;
63217;SDS011;49314;48.278;16.378;2023-08-06T06:23:59;3.97;;;3.78;;
63217;SDS011;49314;48.278;16.378;2023-08-06T06:26:24;3.85;;;3.58;;
63217;SDS011;49314;48.278;16.378;2023-08-06T06:28:49;4.15;;;3.95;;
63217;SDS011;49314;48.278;16.378;2023-08-06T06:31:15;4.70;;;4.50;;
63217;SDS011;49314;48.278;16.378;2023-08-06T06:33:40;4.03;;;3.83;;
63217;SDS011;49314;48.278;16.378;2023-08-06T06:36:05;2.92;;;2.83;;
63217;SDS011;49314;48.278;16.378;2023-08-06T06:38:32;4.00;;;3.80;;
63217;SDS011;49314;48.278;16.378;2023-08-06T06:41:00;4.05;;;3.17;;
63217;SDS011;49314;48.278;16.378;2023-08-06T06:43:25;4.35;;;4.15;;
63217;SDS011;49314;48.278;16.378;2023-08-06T06:45:57;3.50;;;3.40;;
63217;SDS011;49314;48.278;16.378;2023-08-06T06:48:23;2.67;;;2.58;;
63217;SDS011;49314;48.278;16.378;2023-08-06T06:50:48;3.63;;;3.42;;
63217;SDS011;49314;48.278;16.378;2023-08-06T06:53:14;3.30;;;3.10;;
63217;SDS011;49314;48.278;16.378;2023-08-06T06:55:39;3.15;;;3.05;;
63217;SDS011;49314;48.278;16.378;2023-08-06T06:58:04;3.83;;;3.53;;
63217;SDS011;49314;48.278;16.378;2023-08-06T07:00:29;3.75;;;3.58;;
63217;SDS011;49314;48.278;16.378;2023-08-06T07:02:55;4.10;;;3.90;;
63217;SDS011;49314;48.278;16.378;2023-08-06T07:05:20;3.40;;;3.23;;
63217;SDS011;49314;48.278;16.378;2023-08-06T07:07:45;3.20;;;3.00;;
63217;SDS011;49314;48.278;16.378;2023-08-06T07:10:10;3.75;;;3.55;;
63217;SDS011;49314;48.278;16.378;2023-08-06T07:12:36;3.75;;;3.55;;
63217;SDS011;49314;48.278;16.378;2023-08-06T07:15:03;2.95;;;2.85;;
63217;SDS011;49314;48.278;16.378;2023-08-06T07:17:28;3.90;;;3.60;;
63217;SDS011;49314;48.278;16.378;2023-08-06T07:19:53;3.50;;;3.30;;
63217;SDS011;49314;48.278;16.378;2023-08-06T07:22:19;3.57;;;3.27;;
63217;SDS011;49314;48.278;16.378;2023-08-06T07:24:44;2.73;;;2.57;;
63217;SDS011;49314;48.278;16.378;2023-08-06T07:27:09;4.13;;;3.77;;
63217;SDS011;49314;48.278;16.378;2023-08-06T07:29:34;3.70;;;3.50;;
63217;SDS011;49314;48.278;16.378;2023-08-06T07:32:00;3.50;;;3.30;;
63217;SDS011;49314;48.278;16.378;2023-08-06T07:34:25;3.25;;;3.15;;
63217;SDS011;49314;48.278;16.378;2023-08-06T07:36:50;3.10;;;2.90;;
63217;SDS011;49314;48.278;16.378;2023-08-06T07:39:15;3.55;;;3.35;;
63217;SDS011;49314;48.278;16.378;2023-08-06T07:41:41;3.10;;;2.95;;
63217;SDS011;49314;48.278;16.378;2023-08-06T07:44:07;3.13;;;2.92;;
63217;SDS011;49314;48.278;16.378;2023-08-06T07:46:34;3.50;;;3.30;;
63217;SDS011;49314;48.278;16.378;2023-08-06T07:48:59;2.33;;;2.23;;
63217;SDS011;49314;48.278;16.378;2023-08-06T07:51:24;2.40;;;2.20;;
63217;SDS011;49314;48.278;16.378;2023-08-06T07:53:49;2.73;;;2.60;;
63217;SDS011;49314;48.278;16.378;2023-08-06T07:56:14;2.90;;;2.72;;
63217;SDS011;49314;48.278;16.378;2023-08-06T07:58:40;2.93;;;2.80;;
63217;SDS011;49314;48.278;16.378;2023-08-06T08:01:05;3.17;;;2.87;;
63217;SDS011;49314;48.278;16.378;2023-08-06T08:03:31;2.92;;;2.80;;
63217;SDS011;49314;48.278;16.378;2023-08-06T08:05:56;2.83;;;2.70;;
63217;SDS011;49314;48.278;16.378;2023-08-06T08:08:22;3.33;;;3.13;;
63217;SDS011;49314;48.278;16.378;2023-08-06T08:10:48;3.85;;;3.55;;
63217;SDS011;49314;48.278;16.378;2023-08-06T08:13:13;2.33;;;2.22;;
63217;SDS011;49314;48.278;16.378;2023-08-06T08:15:38;3.43;;;3.30;;
63217;SDS011;49314;48.278;16.378;2023-08-06T08:18:03;3.40;;;3.20;;
63217;SDS011;49314;48.278;16.378;2023-08-06T08:20:29;3.15;;;2.95;;
63217;SDS011;49314;48.278;16.378;2023-08-06T08:22:56;3.75;;;3.55;;
63217;SDS011;49314;48.278;16.378;2023-08-06T08:25:21;3.33;;;3.10;;
63217;SDS011;49314;48.278;16.378;2023-08-06T08:27:47;2.80;;;2.70;;
63217;SDS011;49314;48.278;16.378;2023-08-06T08:30:12;3.35;;;3.15;;
63217;SDS011;49314;48.278;16.378;2023-08-06T08:32:37;4.13;;;3.30;;
63217;SDS011;49314;48.278;16.378;2023-08-06T08:35:03;3.10;;;2.90;;
63217;SDS011;49314;48.278;16.378;2023-08-06T08:37:28;2.83;;;2.67;;
63217;SDS011;49314;48.278;16.378;2023-08-06T08:39:53;3.00;;;2.80;;
63217;SDS011;49314;48.278;16.378;2023-08-06T08:42:19;2.28;;;2.13;;
63217;SDS011;49314;48.278;16.378;2023-08-06T08:44:44;3.17;;;2.97;;
63217;SDS011;49314;48.278;16.378;2023-08-06T08:47:10;3.25;;;3.05;;
63217;SDS011;49314;48.278;16.378;2023-08-06T08:49:36;3.15;;;2.88;;
63217;SDS011;49314;48.278;16.378;2023-08-06T08:52:02;2.90;;;2.75;;
63217;SDS011;49314;48.278;16.378;2023-08-06T08:54:27;2.80;;;2.60;;
63217;SDS011;49314;48.278;16.378;2023-08-06T08:56:53;3.13;;;2.92;;
63217;SDS011;49314;48.278;16.378;2023-08-06T08:59:20;3.40;;;3.10;;
63217;SDS011;49314;48.278;16.378;2023-08-06T09:01:45;2.70;;;2.60;;
63217;SDS011;49314;48.278;16.378;2023-08-06T09:04:15;3.33;;;3.13;;
63217;SDS011;49314;48.278;16.378;2023-08-06T09:06:41;2.75;;;2.55;;
63217;SDS011;49314;48.278;16.378;2023-08-06T09:09:12;3.75;;;3.47;;
63217;SDS011;49314;48.278;16.378;2023-08-06T09:11:44;2.95;;;2.85;;
63217;SDS011;49314;48.278;16.378;2023-08-06T09:14:10;1.83;;;1.60;;
63217;SDS011;49314;48.278;16.378;2023-08-06T09:16:36;2.80;;;2.13;;
63217;SDS011;49314;48.278;16.378;2023-08-06T09:19:10;2.60;;;2.40;;
63217;SDS011;49314;48.278;16.378;2023-08-06T09:21:40;3.45;;;3.25;;
63217;SDS011;49314;48.278;16.378;2023-08-06T09:24:12;3.60;;;3.40;;
63217;SDS011;49314;48.278;16.378;2023-08-06T09:26:38;2.53;;;1.92;;
63217;SDS011;49314;48.278;16.378;2023-08-06T09:29:06;2.60;;;2.40;;
63217;SDS011;49314;48.278;16.378;2023-08-06T09:34:10;3.53;;;2.35;;
63217;SDS011;49314;48.278;16.378;2023-08-06T09:36:39;3.25;;;3.05;;
63217;SDS011;49314;48.278;16.378;2023-08-06T09:39:12;2.97;;;2.88;;
63217;SDS011;49314;48.278;16.378;2023-08-06T09:41:37;2.42;;;1.95;;
63217;SDS011;49314;48.278;16.378;2023-08-06T09:44:02;3.50;;;3.30;;
63217;SDS011;49314;48.278;16.378;2023-08-06T09:46:28;3.30;;;3.13;;
63217;SDS011;49314;48.278;16.378;2023-08-06T09:48:53;3.05;;;2.65;;
63217;SDS011;49314;48.278;16.378;2023-08-06T09:51:20;3.40;;;3.20;;
63217;SDS011;49314;48.278;16.378;2023-08-06T09:53:47;3.50;;;3.30;;
63217;SDS011;49314;48.278;16.378;2023-08-06T09:56:15;3.53;;;3.33;;
63217;SDS011;49314;48.278;16.378;2023-08-06T09:58:42;2.67;;;2.58;;
63217;SDS011;49314;48.278;16.378;2023-08-06T10:01:07;2.45;;;2.35;;
63217;SDS011;49314;48.278;16.378;2023-08-06T10:03:33;2.50;;;2.35;;
63217;SDS011;49314;48.278;16.378;2023-08-06T10:05:58;3.47;;;3.28;;
63217;SDS011;49314;48.278;16.378;2023-08-06T10:08:29;3.22;;;3.03;;
63217;SDS011;49314;48.278;16.378;2023-08-06T10:10:54;2.50;;;2.40;;
63217;SDS011;49314;48.278;16.378;2023-08-06T10:13:23;2.55;;;2.45;;
63217;SDS011;49314;48.278;16.378;2023-08-06T10:15:48;2.55;;;2.35;;
63217;SDS011;49314;48.278;16.378;2023-08-06T10:18:14;3.75;;;3.28;;
63217;SDS011;49314;48.278;16.378;2023-08-06T10:20:48;3.47;;;3.30;;
63217;SDS011;49314;48.278;16.378;2023-08-06T10:23:13;3.47;;;3.38;;
63217;SDS011;49314;48.278;16.378;2023-08-06T10:25:40;3.55;;;3.22;;
63217;SDS011;49314;48.278;16.378;2023-08-06T10:28:12;3.63;;;3.35;;
63217;SDS011;49314;48.278;16.378;2023-08-06T10:30:44;4.97;;;3.08;;
63217;SDS011;49314;48.278;16.378;2023-08-06T10:33:12;3.15;;;3.05;;
63217;SDS011;49314;48.278;16.378;2023-08-06T10:35:38;3.17;;;2.97;;
63217;SDS011;49314;48.278;16.378;2023-08-06T10:40:31;3.30;;;3.10;;
63217;SDS011;49314;48.278;16.378;2023-08-06T10:43:03;2.35;;;2.25;;
63217;SDS011;49314;48.278;16.378;2023-08-06T10:45:29;3.55;;;3.40;;
63217;SDS011;49314;48.278;16.378;2023-08-06T10:47:55;3.03;;;2.72;;
63217;SDS011;49314;48.278;16.378;2023-08-06T10:50:24;2.88;;;2.78;;
63217;SDS011;49314;48.278;16.378;2023-08-06T10:52:49;2.65;;;2.45;;
63217;SDS011;49314;48.278;16.378;2023-08-06T10:55:21;2.80;;;2.70;;
63217;SDS011;49314;48.278;16.378;2023-08-06T10:57:47;1.40;;;1.30;;
63217;SDS011;49314;48.278;16.378;2023-08-06T11:00:13;3.00;;;2.35;;
63217;SDS011;49314;48.278;16.378;2023-08-06T11:02:39;2.80;;;2.70;;
63217;SDS011;49314;48.278;16.378;2023-08-06T11:05:07;2.75;;;2.65;;
63217;SDS011;49314;48.278;16.378;2023-08-06T11:07:33;2.92;;;2.83;;
63217;SDS011;49314;48.278;16.378;2023-08-06T11:10:02;3.22;;;3.13;;
63217;SDS011;49314;48.278;16.378;2023-08-06T11:12:31;2.65;;;2.55;;
63217;SDS011;49314;48.278;16.378;2023-08-06T11:14:56;2.67;;;2.47;;
63217;SDS011;49314;48.278;16.378;2023-08-06T11:17:24;4.38;;;4.18;;
63217;SDS011;49314;48.278;16.378;2023-08-06T11:19:50;3.20;;;3.00;;
63217;SDS011;49314;48.278;16.378;2023-08-06T11:22:18;3.88;;;3.67;;
63217;SDS011;49314;48.278;16.378;2023-08-06T11:24:44;3.47;;;3.28;;
63217;SDS011;49314;48.278;16.378;2023-08-06T11:27:14;3.08;;;2.88;;
63217;SDS011;49314;48.278;16.378;2023-08-06T11:29:40;3.75;;;3.55;;
63217;SDS011;49314;48.278;16.378;2023-08-06T11:32:08;3.63;;;3.42;;
63217;SDS011;49314;48.278;16.378;2023-08-06T11:37:43;3.13;;;2.92;;
63217;SDS011;49314;48.278;16.378;2023-08-06T11:40:08;3.47;;;3.28;;
63217;SDS011;49314;48.278;16.378;2023-08-06T11:42:33;3.20;;;3.03;;
63217;SDS011;49314;48.278;16.378;2023-08-06T11:45:01;3.55;;;3.25;;
63217;SDS011;49314;48.278;16.378;2023-08-06T11:47:27;3.63;;;3.33;;
63217;SDS011;49314;48.278;16.378;2023-08-06T11:49:52;4.03;;;3.20;;
63217;SDS011;49314;48.278;16.378;2023-08-06T11:54:48;3.88;;;3.10;;
63217;SDS011;49314;48.278;16.378;2023-08-06T11:57:24;3.30;;;2.70;;
63217;SDS011;49314;48.278;16.378;2023-08-06T12:11:53;8.15;;;7.65;;
63217;SDS011;49314;48.278;16.378;2023-08-06T12:14:19;7.57;;;7.18;;
63217;SDS011;49314;48.278;16.378;2023-08-06T12:16:44;6.87;;;6.47;;
63217;SDS011;49314;48.278;16.378;2023-08-06T12:19:09;9.33;;;8.90;;
63217;SDS011;49314;48.278;16.378;2023-08-06T12:21:34;9.63;;;9.30;;
63217;SDS011;49314;48.278;16.378;2023-08-06T12:24:00;7.80;;;7.47;;
63217;SDS011;49314;48.278;16.378;2023-08-06T12:26:25;8.67;;;8.27;;
63217;SDS011;49314;48.278;16.378;2023-08-06T12:28:50;10.30;;;9.80;;
63217;SDS011;49314;48.278;16.378;2023-08-06T12:31:15;9.77;;;9.38;;
63217;SDS011;49314;48.278;16.378;2023-08-06T12:33:40;7.60;;;7.13;;
63217;SDS011;49314;48.278;16.378;2023-08-06T12:36:06;7.28;;;6.90;;
63217;SDS011;49314;48.278;16.378;2023-08-06T12:38:31;8.27;;;7.97;;
63217;SDS011;49314;48.278;16.378;2023-08-06T12:40:58;9.50;;;8.93;;
63217;SDS011;49314;48.278;16.378;2023-08-06T12:43:24;7.03;;;6.60;;
63217;SDS011;49314;48.278;16.378;2023-08-06T12:45:49;9.77;;;9.32;;
63217;SDS011;49314;48.278;16.378;2023-08-06T12:48:14;7.15;;;6.68;;
63217;SDS011;49314;48.278;16.378;2023-08-06T12:50:39;8.73;;;8.23;;
63217;SDS011;49314;48.278;16.378;2023-08-06T12:53:05;7.63;;;7.23;;
63217;SDS011;49314;48.278;16.378;2023-08-06T12:55:30;6.72;;;6.43;;
63217;SDS011;49314;48.278;16.378;2023-08-06T12:57:55;7.25;;;6.78;;
63217;SDS011;49314;48.278;16.378;2023-08-06T13:00:21;6.73;;;6.37;;
63217;SDS011;49314;48.278;16.378;2023-08-06T13:02:46;8.47;;;8.07;;
63217;SDS011;49314;48.278;16.378;2023-08-06T13:05:11;9.20;;;8.65;;
63217;SDS011;49314;48.278;16.378;2023-08-06T13:07:36;7.53;;;7.10;;
63217;SDS011;49314;48.278;16.378;2023-08-06T13:10:01;7.60;;;7.10;;
63217;SDS011;49314;48.278;16.378;2023-08-06T13:12:27;7.68;;;7.18;;
63217;SDS011;49314;48.278;16.378;2023-08-06T13:14:52;7.90;;;7.50;;
63217;SDS011;49314;48.278;16.378;2023-08-06T13:17:18;6.47;;;6.07;;
63217;SDS011;49314;48.278;16.378;2023-08-06T13:19:43;7.43;;;7.03;;
63217;SDS011;49314;48.278;16.378;2023-08-06T13:22:09;6.25;;;5.95;;
63217;SDS011;49314;48.278;16.378;2023-08-06T13:24:34;6.90;;;6.53;;
63217;SDS011;49314;48.278;16.378;2023-08-06T13:27:00;6.43;;;6.03;;
63217;SDS011;49314;48.278;16.378;2023-08-06T13:29:25;6.63;;;6.15;;
63217;SDS011;49314;48.278;16.378;2023-08-06T13:31:52;5.68;;;5.38;;
63217;SDS011;49314;48.278;16.378;2023-08-06T13:34:17;5.50;;;5.22;;
63217;SDS011;49314;48.278;16.378;2023-08-06T13:36:42;6.43;;;6.10;;
63217;SDS011;49314;48.278;16.378;2023-08-06T13:39:07;5.10;;;4.80;;
63217;SDS011;49314;48.278;16.378;2023-08-06T13:41:33;6.47;;;6.10;;
63217;SDS011;49314;48.278;16.378;2023-08-06T13:43:58;5.80;;;5.40;;
63217;SDS011;49314;48.278;16.378;2023-08-06T13:46:24;6.28;;;5.78;;
63217;SDS011;49314;48.278;16.378;2023-08-06T13:48:49;6.55;;;6.07;;
63217;SDS011;49314;48.278;16.378;2023-08-06T13:51:16;5.13;;;4.53;;
63217;SDS011;49314;48.278;16.378;2023-08-06T13:53:41;4.72;;;4.43;;
63217;SDS011;49314;48.278;16.378;2023-08-06T13:56:07;4.68;;;4.47;;
63217;SDS011;49314;48.278;16.378;2023-08-06T13:58:32;5.00;;;4.60;;
63217;SDS011;49314;48.278;16.378;2023-08-06T14:00:58;5.65;;;5.35;;
63217;SDS011;49314;48.278;16.378;2023-08-06T14:03:23;5.10;;;4.77;;
63217;SDS011;49314;48.278;16.378;2023-08-06T14:05:48;4.45;;;4.15;;
63217;SDS011;49314;48.278;16.378;2023-08-06T14:08:13;5.43;;;5.10;;
63217;SDS011;49314;48.278;16.378;2023-08-06T14:10:39;5.47;;;5.07;;
63217;SDS011;49314;48.278;16.378;2023-08-06T14:13:04;3.43;;;3.23;;
63217;SDS011;49314;48.278;16.378;2023-08-06T14:15:29;5.67;;;5.37;;
63217;SDS011;49314;48.278;16.378;2023-08-06T14:17:54;4.20;;;4.00;;
63217;SDS011;49314;48.278;16.378;2023-08-06T14:20:20;4.60;;;4.30;;
63217;SDS011;49314;48.278;16.378;2023-08-06T14:22:45;4.97;;;4.63;;
63217;SDS011;49314;48.278;16.378;2023-08-06T14:25:10;4.35;;;4.13;;
63217;SDS011;49314;48.278;16.378;2023-08-06T14:27:35;4.80;;;4.60;;
63217;SDS011;49314;48.278;16.378;2023-08-06T14:30:01;8.13;;;5.22;;
63217;SDS011;49314;48.278;16.378;2023-08-06T14:32:28;4.55;;;4.15;;
63217;SDS011;49314;48.278;16.378;2023-08-06T14:34:53;3.87;;;3.67;;
63217;SDS011;49314;48.278;16.378;2023-08-06T14:37:18;4.32;;;4.05;;
63217;SDS011;49314;48.278;16.378;2023-08-06T14:39:43;4.37;;;4.17;;
63217;SDS011;49314;48.278;16.378;2023-08-06T14:42:08;4.00;;;3.70;;
63217;SDS011;49314;48.278;16.378;2023-08-06T14:44:34;2.80;;;2.70;;
63217;SDS011;49314;48.278;16.378;2023-08-06T14:46:59;3.40;;;3.27;;
63217;SDS011;49314;48.278;16.378;2023-08-06T14:49:24;3.63;;;3.53;;
63217;SDS011;49314;48.278;16.378;2023-08-06T14:51:53;3.70;;;3.40;;
63217;SDS011;49314;48.278;16.378;2023-08-06T14:54:18;4.07;;;3.88;;
63217;SDS011;49314;48.278;16.378;2023-08-06T14:56:43;5.80;;;5.47;;